Sabot, Virginia
Current Conditions -  °F | °C
As of 12:54 PM on Friday 24 Oct 2014 (Local Time) from KOFP Reporting Station
Clear Clear  
Wind Chill: 65°   Ceiling: Unl
Heat Index: 65°   Visibility: 10mi
Dew Point: 44°   Wind: 5mph
Humidity: 47%   Direction: NA
Pressure: 29.99"   Gusts: NA
Location:  37.6517°N, 77.7212°W
Report Text: KOFP 241654Z AUTO VRB04KT 10SM CLR 18/07 A2999 RMK AO2 SLP155 T01830067
Loading
Personal Weather Stations






























Interactive Weather Map
Tropical Storm Tracking
New forecast layout! Learn more

10-Day Weather Forecast

Advertisements
Track Severe Weather on mobile